Tiempo atmosférico en la estación meteorológica de Caldes De Montbui, Barcelona (168 m.)



Fecha
DESCASC
Temp. máxima en grados centígrados (hora)
DESCASC
Temp. mínima en grados centígrados (hora)
DESCASC
Temp. media en grados centígrados
DESCASC
Racha de viento máxima en m/sg (hora)
DESCASC
Velocidad máxima media en intervalos de 10 minutos(hora)
DESCASC
Precipitaciones diarias en mm
DESCASC
Precipitaciones de 00:00 a 06:00 en mm
DESCASC
Precipitaciones de 06:00 a 12:00 en mm
DESCASC
Precipitaciones de 12:00 a 18:00 en mm
DESCASC
Precipitaciones de 18:00 a 24:00 en mm
DESCASC
25-04-2019 17.8 (16:40) 8.8 (00:00) 13.3 9.44 (12:00) 6.11 (11:50) 0.8 0 0 0.8 0
24-04-2019 18.8 (14:50) 8.2 (23:40) 13.5 10.28 (14:10) 5.83 (15:10) 0 0 0 0 0
23-04-2019 22.3 (15:40) 12.2 (22:00) 17.2 8.89 (18:00) 5.83 (18:00) 3 1.6 1.2 0.2 0
22-04-2019 19.8 (13:00) 12 (00:00) 15.9 12.5 (11:00) 4.72 (11:50) 0 0 0 0 0
21-04-2019 19.3 (15:10) 12.5 (00:00) 15.9 13.33 (10:40) 6.11 (00:30) 0 0 0 0 0
20-04-2019 18.9 (13:40) 11.8 (00:00) 15.3 13.61 (10:40) 6.39 (23:30) 2.2 0 0 0 2.2
19-04-2019 21.6 (16:00) 13.2 (00:00) 17.4 15 (16:10) 6.67 (16:20) 0 0 0 0 0
18-04-2019 20.2 (16:00) 8.6 (00:00) 14.4 10.83 (15:40) 5.28 (15:40) 0 0 0 0 0
17-04-2019 18.1 (14:00) 5.9 (00:00) 12 6.39 (15:10) 4.17 (14:30) 0 0 0 0 0
16-04-2019 19.1 (16:00) 6.8 (00:00) 13 6.94 (17:20) 4.72 (17:20) 1.2 1.2 0 0 0
15-04-2019 16.8 (14:10) 5.6 (00:00) 11.2 5.83 (14:40) 3.89 (14:40) 0 0 0 0 0
14-04-2019 18.8 (13:40) 5.8 (00:00) 12.3 7.22 (14:20) 4.17 (14:00) 0 0 0 0 0
13-04-2019 20.2 (14:10) 5.4 (00:00) 12.8 7.78 (15:00) 5.28 (16:00) 0 0 0 0 0
12-04-2019 18.6 (12:30) 7.2 (00:00) 12.9 9.72 (13:40) 6.39 (13:40) 0 0 0 0 0
11-04-2019 19.9 (12:40) 4.7 (00:00) 12.3 6.94 (16:00) 5 (16:00) 0.4 0 0 0.4 0
10-04-2019 19.6 (12:40) 3.8 (00:00) 11.7 8.33 (16:00) 3.89 (13:10) 0.2 0 0 0.2 0
09-04-2019 16.4 (10:50) 7 (00:00) 11.7 7.5 (17:20) 4.17 (12:50) 11.2 0 0 10.6 0.6
08-04-2019 21.7 (17:10) 4 (00:00) 12.9 7.22 (18:50) 4.44 (14:50) 0 0 0 0 0
07-04-2019 18.1 (14:10) 3.4 (00:00) 10.8 6.39 (14:10) 3.89 (00:20) 0.2 0 0 0.2 0
06-04-2019 16.7 (17:30) 6.3 (00:00) 11.5 11.67 (14:50) 7.22 (11:00) 3.4 3.4 0 0 0
05-04-2019 17.6 (15:20) 1.2 (00:00) 9.4 10 (17:30) 6.11 (16:50) 13.2 0 0 0 13.2
04-04-2019 16.5 (14:40) 1.9 (00:00) 9.2 8.33 (16:50) 5.28 (16:10) 0 0 0 0 0
03-04-2019 18.3 (13:10) 7 (00:00) 12.6 10 (17:50) 6.39 (17:50) 4.4 0 0.2 2 2.2
02-04-2019 21.8 (15:30) 5.4 (00:00) 13.6 8.06 (16:20) 5 (16:00) 3.2 0 0 0 3.2
01-04-2019 21.2 (15:30) 7 (00:00) 14.1 8.06 (15:50) 5.83 (16:10) 0 0 0 0 0
31-03-2019 19.5 (16:10) 4.1 (00:00) 11.8 7.78 (17:10) 4.72 (17:10) 0 0 0 0 0
30-03-2019 18.3 (13:30) 2.9 (00:00) 10.6 6.39 (14:00) 3.89 (13:00) 0 0 0 0 0
29-03-2019 18.8 (13:30) 3 (00:00) 10.9 7.78 (13:50) 4.72 (14:10) 0 0 0 0 0
28-03-2019 18.4 (13:40) 2.4 (00:00) 10.4 8.06 (13:20) 5.83 (14:20) 0 0 0 0 0
27-03-2019 19.5 (13:40) 2.1 (00:00) 10.8 8.89 (13:50) 5.28 (14:10) 0 0 0 0 0

Gráficas

Temp. máximas Temp. mínimas Temp. medias Precipitaciones Rachas de viento máximas Velocidades máximas media en intervalos de 10 minutos

Datos horarios

Fecha y hora oficial Temperatura (ºC) Velocidad del viento (km/h) Dirección del viento Racha (km/h) Dirección de racha Precipitación (mm) Presión (hPa) Tendencia (hPa) Humedad (%)
2019-04-25 23:00:00 10.2 2 Sudeste 12 Sudoeste 0 -- -- 84
2019-04-25 22:00:00 11.4 3 Noroeste 14 Noroeste 0 -- -- 88
2019-04-25 21:00:00 12.3 9 Noroeste 30 Noroeste 0 -- -- 83
2019-04-25 20:00:00 15.4 5 Sudoeste 20 Sudeste 0 -- -- 81
2019-04-25 19:00:00 16.8 8 Este 17 Sudeste 0 -- -- 76
2019-04-25 18:00:00 15.9 14 Sudeste 27 Este 0 -- -- 77
2019-04-25 17:00:00 17.1 11 Sudeste 21 Este 0 -- -- 73
2019-04-25 16:00:00 16.6 8 Sudeste 15 Sudeste 0 -- -- 70
2019-04-25 15:00:00 15.2 3 Nordeste 14 Oeste 0.4 -- -- 77
2019-04-25 14:00:00 13.9 9 Oeste 23 Noroeste 0.4 -- -- 77
2019-04-25 13:00:00 14.4 13 Noroeste 31 Oeste 0 -- -- 70
2019-04-25 12:00:00 13.8 21 Oeste 34 Oeste 0 -- -- 73
2019-04-25 11:00:00 15.5 5 Sur 12 Sur 0 -- -- 81
2019-04-25 10:00:00 15.1 9 Sur 17 Sur 0 -- -- 83
2019-04-25 09:00:00 14.4 9 Sudeste 21 Sudeste 0 -- -- 86
2019-04-25 08:00:00 14.1 12 Sudeste 18 Sur 0 -- -- 86
2019-04-25 07:00:00 13.5 10 Sudeste 16 Sudeste 0 -- -- 88
2019-04-25 06:00:00 13.5 12 Sudeste 25 Sudeste 0 -- -- 87
2019-04-25 05:00:00 13.5 15 Sudeste 25 Sudeste 0 -- -- 88
2019-04-25 04:00:00 13.3 12 Sudeste 23 Sur 0 -- -- 88
2019-04-25 03:00:00 12.6 10 Sudeste 21 Sudeste 0 -- -- 92
2019-04-25 02:00:00 9.7 2 Noroeste 8 Oeste 0 -- -- 93
2019-04-25 01:00:00 9.3 5 Noroeste 11 Oeste 0 -- -- 89
2019-04-25 00:00:00 8.8 8 Noroeste 9 Noroeste 0 -- -- 91
2019-04-24 23:00:00 8.7 4 Noroeste 9 Noroeste 0 -- -- 86
2019-04-24 22:00:00 9.2 4 Noroeste 9 Este 0 -- -- 84
2019-04-24 21:00:00 13 4 Sudeste 22 Sudeste 0 -- -- 66
2019-04-24 20:00:00 15.6 13 Sur 27 Sur 0 -- -- 52
2019-04-24 19:00:00 16.7 18 Sur 30 Sur 0 -- -- 47
2019-04-24 18:00:00 17.3 13 Sur 29 Sudeste 0 -- -- 47
2019-04-24 17:00:00 15.6 13 Sur 35 Sur 0 -- -- 53
2019-04-24 16:00:00 16.9 12 Sur 34 Sudoeste 0 -- -- 44
2019-04-24 15:00:00 18.4 20 Sur 37 Sudeste 0 -- -- 39
2019-04-24 14:00:00 18.4 17 Sur 27 Sudeste 0 -- -- 47
2019-04-24 13:00:00 16.5 12 Sur 26 Sudeste 0 -- -- 48
2019-04-24 12:00:00 16.7 13 Sur 28 Sur 0 -- -- 48
2019-04-24 11:00:00 16 13 Sudoeste 24 Sudoeste 0 -- -- 51
2019-04-24 10:00:00 15.6 5 Sudeste 15 Oeste 0 -- -- 54
2019-04-24 09:00:00 11.8 10 Oeste 19 Sudoeste 0 -- -- 68
2019-04-24 08:00:00 9.3 2 Nordeste 9 Sudoeste 0 -- -- 96
2019-04-24 07:00:00 9.4 5 Oeste 9 Noroeste 0 -- -- 96
2019-04-24 06:00:00 9.8 8 Noroeste 11 Noroeste 0 -- -- 98
2019-04-24 05:00:00 11.6 2 Sudeste 7 Noroeste 0 -- -- 96
2019-04-24 04:00:00 12.3 2 Sudeste 10 Sudeste 0 -- -- 93
2019-04-24 03:00:00 11.9 3 Noroeste 6 Oeste 0 -- -- 97
2019-04-24 02:00:00 12.1 2 Noroeste 5 Oeste 0 -- -- 96
2019-04-24 01:00:00 12 3 Oeste 8 Noroeste 0 -- -- 96
2019-04-24 00:00:00 12.5 2 Noroeste 6 Noroeste 0 -- -- 93
2019-04-23 23:00:00 12.8 0 Calma 7 Noroeste 0 -- -- 93
2019-04-23 22:00:00 12.2 3 Noroeste 6 Norte 0 -- -- 92
2019-04-23 21:00:00 14.2 2 Este 18 Este 0 -- -- 85
2019-04-23 20:00:00 15.5 12 Sudeste 19 Sudeste 0 -- -- 83
2019-04-23 19:00:00 18.3 14 Sudeste 28 Sudeste 0 -- -- 68
2019-04-23 18:00:00 20.3 21 Sudeste 32 Este 0 -- -- 64
2019-04-23 17:00:00 21.1 18 Sudeste 31 Sudeste 0 -- -- 56
2019-04-23 16:00:00 22.1 14 Sudeste 24 Sudeste 0 -- -- 54
2019-04-23 15:00:00 21.6 10 Sudeste 22 Sur 0 -- -- 58
2019-04-23 14:00:00 18 14 Sudeste 21 Sudeste 0 -- -- 73
2019-04-23 13:00:00 19.3 10 Sudeste 16 Sudeste 0.2 -- -- 68
2019-04-23 12:00:00 16.5 4 Sur 12 Sur 0 -- -- 82
2019-04-23 11:00:00 15.6 8 Sur 12 Sur 0.8 -- -- 85
2019-04-23 10:00:00 15.1 6 Sur 10 Sur 0.4 -- -- 87
2019-04-23 09:00:00 15 3 Nordeste 4 Norte 0 -- -- 88
2019-04-23 08:00:00 13.1 0 Calma 4 Sudoeste 0 -- -- 97
2019-04-23 07:00:00 12.7 3 Sudoeste 5 Oeste 0 -- -- 96
2019-04-23 06:00:00 12.8 2 Noroeste 8 Sudeste 1.6 -- -- 95
2019-04-23 05:00:00 13.1 3 Sudeste 8 Sudeste 0 -- -- 91
2019-04-23 04:00:00 13.5 5 Sudeste 8 Sudeste 0 -- -- 85
2019-04-23 03:00:00 14.2 2 Noroeste 10 Noroeste 0 -- -- 80
2019-04-23 02:00:00 14.6 4 Norte 19 Noroeste 0 -- -- 75
2019-04-23 01:00:00 14.9 10 Noroeste 21 Noroeste 0 -- -- 72
2019-04-23 00:00:00 14.9 5 Norte 22 Noroeste 0 -- -- 71
2019-04-22 23:00:00 14.6 3 Nordeste 10 Nordeste 0 -- -- 73
2019-04-22 22:00:00 13.9 8 Sudoeste 12 Este 0 -- -- 74
2019-04-22 21:00:00 15.2 3 Norte 12 Sudeste 0 -- -- 63
2019-04-22 20:00:00 15.7 4 Noroeste 21 Noroeste 0 -- -- 60
2019-04-22 19:00:00 16.3 11 Noroeste 23 Norte 0 -- -- 62
2019-04-22 18:00:00 17.8 7 Nordeste 21 Nordeste 0 -- -- 56
2019-04-22 17:00:00 17.8 5 Sudeste 11 Oeste 0 -- -- 59
2019-04-22 16:00:00 17.6 7 Sudoeste 32 Este 0 -- -- 59
2019-04-22 15:00:00 18.3 6 Nordeste 35 Norte 0 -- -- 54
2019-04-22 14:00:00 16.9 13 Nordeste 32 Nordeste 0 -- -- 60
2019-04-22 13:00:00 19.8 10 Nordeste 37 Nordeste 0 -- -- 52
2019-04-22 12:00:00 17.7 14 Nordeste 37 Nordeste 0 -- -- 55
2019-04-22 11:00:00 18.6 16 Nordeste 45 Nordeste 0 -- -- 51
2019-04-22 10:00:00 17.2 5 Norte 23 Nordeste 0 -- -- 52
2019-04-22 09:00:00 15.1 8 Este 29 Nordeste 0 -- -- 57
2019-04-22 08:00:00 14.8 10 Nordeste 30 Norte 0 -- -- 62
2019-04-22 07:00:00 13.7 5 Noroeste 20 Norte 0 -- -- 62
2019-04-22 06:00:00 12.7 3 Nordeste 23 Norte 0 -- -- 75
2019-04-22 05:00:00 15 12 Norte 37 Nordeste 0 -- -- 58
2019-04-22 04:00:00 13.7 6 Noroeste 17 Nordeste 0 -- -- 63
2019-04-22 03:00:00 12.2 2 Noroeste 8 Este 0 -- -- 75
2019-04-22 02:00:00 14.1 3 Norte 10 Nordeste 0 -- -- 58
2019-04-22 01:00:00 14.7 5 Noroeste 23 Norte 0 -- -- 54
2019-04-22 00:00:00 16.3 15 Norte 37 Nordeste 0 -- -- 44
2019-04-21 23:00:00 15.6 11 Norte 28 Norte 0 -- -- 52
2019-04-21 22:00:00 14.4 4 Nordeste 17 Norte 0 -- -- 62
2019-04-21 21:00:00 15 10 Norte 23 Norte 0 -- -- 61
2019-04-21 20:00:00 17.3 8 Nordeste 21 Nordeste 0 -- -- 53
2019-04-21 19:00:00 17.1 9 Nordeste 32 Nordeste 0 -- -- 53
2019-04-21 18:00:00 17.8 10 Nordeste 29 Este 0 -- -- 52
2019-04-21 17:00:00 18 12 Nordeste 40 Nordeste 0 -- -- 52
2019-04-21 16:00:00 19.1 12 Nordeste 41 Este 0 -- -- 44
2019-04-21 15:00:00 19 13 Nordeste 34 Norte 0 -- -- 45
2019-04-21 14:00:00 17.7 11 Norte 28 Nordeste 0 -- -- 44
2019-04-21 13:00:00 16.6 17 Nordeste 37 Nordeste 0 -- -- 48
2019-04-21 12:00:00 16.9 13 Nordeste 44 Nordeste 0 -- -- 52
2019-04-21 11:00:00 16.6 14 Nordeste 48 Norte 0 -- -- 55
2019-04-21 10:00:00 17.2 12 Nordeste 34 Nordeste 0 -- -- 50
2019-04-21 09:00:00 15.3 6 Norte 22 Noroeste 0 -- -- 57
2019-04-21 08:00:00 14.5 9 Norte 21 Noroeste 0 -- -- 59
2019-04-21 07:00:00 14.8 12 Norte 33 Norte 0 -- -- 55
2019-04-21 06:00:00 14.3 6 Nordeste 18 Norte 0 -- -- 57
2019-04-21 05:00:00 14 9 Norte 21 Noroeste 0 -- -- 57
2019-04-21 04:00:00 13.7 6 Norte 28 Noroeste 0 -- -- 61
2019-04-21 03:00:00 13.2 12 Noroeste 21 Noroeste 0 -- -- 65
2019-04-21 02:00:00 13.4 12 Noroeste 27 Noroeste 0 -- -- 63
2019-04-21 01:00:00 12.8 17 Noroeste 37 Noroeste 0 -- -- 66
2019-04-21 00:00:00 12.6 22 Noroeste 39 Noroeste 0 -- -- 68
2019-04-20 23:00:00 12.6 21 Noroeste 34 Norte 0 -- -- 70
2019-04-20 22:00:00 12.9 18 Noroeste 35 Noroeste 0.2 -- -- 68
2019-04-20 21:00:00 12.2 9 Norte 27 Oeste 0.8 -- -- 76
2019-04-20 20:00:00 12.5 6 Noroeste 14 Noroeste 1 -- -- 77
2019-04-20 19:00:00 14.7 8 Norte 36 Nordeste 0.2 -- -- 59
2019-04-20 18:00:00 16.6 16 Norte 39 Norte 0 -- -- 43
2019-04-20 17:00:00 16.9 13 Nordeste 35 Este 0 -- -- 47
2019-04-20 16:00:00 17.9 10 Nordeste 35 Nordeste 0 -- -- 44
2019-04-20 15:00:00 18.3 13 Nordeste 38 Norte 0 -- -- 43
2019-04-20 14:00:00 18.7 11 Nordeste 37 Norte 0 -- -- 44
2019-04-20 13:00:00 18.4 14 Nordeste 37 Norte 0 -- -- 45
2019-04-20 12:00:00 17.8 17 Nordeste 44 Norte 0 -- -- 46
2019-04-20 11:00:00 18.2 18 Nordeste 49 Nordeste 0 -- -- 40
2019-04-20 10:00:00 18.3 14 Nordeste 40 Nordeste 0 -- -- 43
2019-04-20 09:00:00 17.1 9 Este 26 Este 0 -- -- 47
2019-04-20 08:00:00 16 10 Nordeste 35 Nordeste 0 -- -- 44
2019-04-20 07:00:00 15.5 13 Norte 28 Norte 0 -- -- 44
2019-04-20 06:00:00 15.4 7 Norte 22 Norte 0 -- -- 46
2019-04-20 05:00:00 15.7 8 Nordeste 24 Norte 0 -- -- 45
2019-04-20 04:00:00 15.9 9 Este 31 Nordeste 0 -- -- 44
2019-04-20 03:00:00 16.5 13 Nordeste 39 Nordeste 0 -- -- 43
2019-04-20 02:00:00 16 11 Nordeste 29 Norte 0 -- -- 46
2019-04-20 01:00:00 16.1 14 Norte 35 Norte 0 -- -- 46
2019-04-20 00:00:00 15.8 19 Norte 36 Norte 0 -- -- 50
2019-04-19 23:00:00 14.7 8 Norte 15 Nordeste 0 -- -- 51
2019-04-19 22:00:00 13.9 5 Noroeste 14 Noroeste 0 -- -- 59
2019-04-19 21:00:00 15.6 8 Nordeste 26 Norte 0 -- -- 53
2019-04-19 20:00:00 18.5 8 Este 26 Este 0 -- -- 46
2019-04-19 19:00:00 18.6 10 Nordeste 44 Nordeste 0 -- -- 46
2019-04-19 18:00:00 20 16 Este 42 Este 0 -- -- 42
2019-04-19 17:00:00 20.7 20 Nordeste 54 Norte 0 -- -- 34
2019-04-19 16:00:00 21.6 18 Nordeste 46 Norte 0 -- -- 37
2019-04-19 15:00:00 20.5 21 Este 47 Nordeste 0 -- -- 45
2019-04-19 14:00:00 20.2 14 Nordeste 42 Este 0 -- -- 44
2019-04-19 13:00:00 18.8 15 Nordeste 43 Nordeste 0 -- -- 47
2019-04-19 12:00:00 18.1 16 Nordeste 40 Nordeste 0 -- -- 50
2019-04-19 11:00:00 16.8 10 Nordeste 28 Nordeste 0 -- -- 60
2019-04-19 10:00:00 15.7 10 Nordeste 28 Nordeste 0 -- -- 65
2019-04-19 09:00:00 14.6 6 Norte 26 Norte 0 -- -- 65
2019-04-19 08:00:00 14.1 12 Norte 25 Nordeste 0 -- -- 64
2019-04-19 07:00:00 14.5 14 Norte 34 Norte 0 -- -- 60
2019-04-19 06:00:00 14.4 9 Nordeste 26 Este 0 -- -- 61
2019-04-19 05:00:00 14.9 8 Nordeste 31 Nordeste 0 -- -- 59
2019-04-19 04:00:00 15.1 13 Norte 33 Norte 0 -- -- 57
2019-04-19 03:00:00 15.2 14 Nordeste 34 Norte 0 -- -- 58
2019-04-19 02:00:00 14.9 11 Nordeste 35 Norte 0 -- -- 61
2019-04-19 01:00:00 15.3 19 Norte 38 Nordeste 0 -- -- 57
2019-04-19 00:00:00 15 13 Norte 31 Norte 0 -- -- 56
2019-04-18 23:00:00 15.1 12 Nordeste 27 Norte 0 -- -- 55
2019-04-18 22:00:00 15 11 Nordeste 29 Nordeste 0 -- -- 56
2019-04-18 21:00:00 14.6 13 Este 30 Este 0 -- -- 64
2019-04-18 20:00:00 15.8 12 Nordeste 34 Nordeste 0 -- -- 60
2019-04-18 19:00:00 17.5 13 Nordeste 33 Nordeste 0 -- -- 56
2019-04-18 18:00:00 17.9 13 Nordeste 33 Nordeste 0 -- -- 55
2019-04-18 17:00:00 18.7 12 Este 37 Norte 0 -- -- 54
2019-04-18 16:00:00 20.2 12 Nordeste 39 Nordeste 0 -- -- 48
2019-04-18 15:00:00 19.4 13 Nordeste 31 Este 0 -- -- 50
2019-04-18 14:00:00 17.7 14 Este 36 Nordeste 0 -- -- 56
2019-04-18 13:00:00 16.4 11 Este 24 Nordeste 0 -- -- 55
2019-04-18 12:00:00 16.4 10 Nordeste 32 Norte 0 -- -- 52
2019-04-18 11:00:00 15.3 9 Norte 21 Norte 0 -- -- 60
2019-04-18 10:00:00 13.9 5 Nordeste 14 Norte 0 -- -- 76
2019-04-18 09:00:00 11.3 5 Noroeste 10 Noroeste 0 -- -- 90
2019-04-18 08:00:00 10.5 6 Noroeste 19 Norte 0 -- -- 90
2019-04-18 07:00:00 8.7 6 Noroeste 9 Noroeste 0 -- -- 96
2019-04-18 06:00:00 9.8 6 Noroeste 13 Nordeste 0 -- -- 93
2019-04-18 05:00:00 11.3 5 Noroeste 8 Noroeste 0 -- -- 95
2019-04-18 04:00:00 10.9 2 Sur 10 Noroeste 0 -- -- 93
2019-04-18 03:00:00 11 4 Norte 12 Nordeste 0 -- -- 93
2019-04-18 02:00:00 10.5 3 Noroeste 7 Norte 0 -- -- 94
2019-04-18 01:00:00 11 4 Noroeste 7 Noroeste 0 -- -- 94
2019-04-18 00:00:00 10.9 6 Noroeste 8 Noroeste 0 -- -- 94
2019-04-17 23:00:00 10.9 7 Noroeste 8 Noroeste 0 -- -- 92
2019-04-17 22:00:00 11.1 3 Noroeste 5 Noroeste 0 -- -- 89
2019-04-17 21:00:00 12 2 Sudoeste 6 Sudeste 0 -- -- 86
2019-04-17 20:00:00 14.6 4 Sudeste 15 Sudeste 0 -- -- 72
2019-04-17 19:00:00 16.7 9 Sudeste 17 Sudeste 0 -- -- 65
2019-04-17 18:00:00 17.1 10 Sudeste 22 Sudeste 0 -- -- 64
2019-04-17 17:00:00 17.8 13 Sudeste 22 Sudeste 0 -- -- 62
2019-04-17 16:00:00 16.7 10 Sudeste 23 Sudeste 0 -- -- 67
2019-04-17 15:00:00 17 15 Sudeste 23 Sudeste 0 -- -- 67
2019-04-17 14:00:00 18.1 10 Sudeste 18 Sudeste 0 -- -- 66
2019-04-17 13:00:00 17.5 11 Sudeste 22 Sudeste 0 -- -- 68
2019-04-17 12:00:00 16.9 7 Sudeste 15 Sudeste 0 -- -- 70
2019-04-17 11:00:00 15.4 6 Este 12 Sudeste 0 -- -- 73
2019-04-17 10:00:00 13.5 5 Sudeste 9 Sudeste 0 -- -- 80
2019-04-17 09:00:00 11.1 3 Sudeste 6 Sudeste 0 -- -- 96
2019-04-17 08:00:00 7.1 0 Calma 4 Noroeste 0 -- -- 99
2019-04-17 07:00:00 6 2 Noroeste 8 Noroeste 0 -- -- 97
2019-04-17 06:00:00 6.4 7 Noroeste 9 Noroeste 0 -- -- 97
2019-04-17 05:00:00 7.3 5 Noroeste 9 Noroeste 0 -- -- 96
2019-04-17 04:00:00 8.2 4 Noroeste 10 Noroeste 0 -- -- 94
2019-04-17 03:00:00 8.8 8 Noroeste 12 Noroeste 0 -- -- 94
2019-04-17 02:00:00 8.9 7 Noroeste 11 Oeste 0 -- -- 96
2019-04-17 01:00:00 9.2 7 Noroeste 9 Noroeste 0 -- -- 95
2019-04-17 00:00:00 10.3 0 Calma 4 Sur 0 -- -- 93
2019-04-16 23:00:00 12.5 3 Sudeste 8 Sur 0 -- -- 89
2019-04-16 22:00:00 12.8 2 Sudoeste 5 Sudoeste 0 -- -- 87
2019-04-16 21:00:00 13.1 3 Sudeste 9 Sudeste 0 -- -- 87
2019-04-16 20:00:00 13.8 7 Sur 14 Sudeste 0 -- -- 83
2019-04-16 19:00:00 14.4 10 Sur 17 Sudeste 0 -- -- 77
2019-04-16 18:00:00 15.4 13 Sudeste 25 Sur 0 -- -- 73
2019-04-16 17:00:00 16.7 15 Sudeste 22 Sudeste 0 -- -- 66
2019-04-16 16:00:00 19.1 11 Sudeste 16 Sudeste 0 -- -- 60
2019-04-16 15:00:00 17.5 4 Sudeste 9 Sudeste 0 -- -- 61
2019-04-16 14:00:00 15.9 6 Sur 10 Sudeste 0 -- -- 69
2019-04-16 13:00:00 16.3 2 Sudeste 11 Sudeste 0 -- -- 66
2019-04-16 12:00:00 15.7 7 Sudeste 13 Sudeste 0 -- -- 67
2019-04-16 11:00:00 14.7 6 Sur 13 Sudeste 0 -- -- 69
2019-04-16 10:00:00 13.9 3 Nordeste 12 Nordeste 0 -- -- 70
2019-04-16 09:00:00 10.2 3 Nordeste 10 Noroeste 0 -- -- 82
2019-04-16 08:00:00 7.6 8 Noroeste 11 Noroeste 0 -- -- 89
2019-04-16 07:00:00 7 5 Noroeste 10 Noroeste 0 -- -- 91
2019-04-16 06:00:00 7.3 5 Noroeste 9 Noroeste 0 -- -- 91
2019-04-16 05:00:00 7.9 5 Oeste 8 Oeste 0 -- -- 94
2019-04-16 04:00:00 7.8 4 Oeste 6 Noroeste 0 -- -- 95
2019-04-16 03:00:00 8 3 Noroeste 12 Noroeste 0 -- -- 92
2019-04-16 02:00:00 8.5 10 Noroeste 17 Noroeste 0.8 -- -- 86
2019-04-16 01:00:00 8.6 9 Noroeste 17 Noroeste 0.4 -- -- 78
2019-04-16 00:00:00 8.2 10 Noroeste 13 Noroeste 0 -- -- 77
2019-04-15 23:00:00 8.2 8 Noroeste 10 Oeste 0 -- -- 80
2019-04-15 22:00:00 8.9 4 Noroeste 6 Noroeste 0 -- -- 83
2019-04-15 21:00:00 12.1 5 Sur 8 Sudeste 0 -- -- 64
2019-04-15 20:00:00 13.7 4 Sudeste 11 Sudeste 0 -- -- 52
2019-04-15 19:00:00 15 8 Sudeste 15 Sudeste 0 -- -- 50
2019-04-15 18:00:00 15.1 12 Sudeste 19 Sudeste 0 -- -- 57
2019-04-15 17:00:00 16.1 6 Sur 15 Sudeste 0 -- -- 55
2019-04-15 16:00:00 15.5 10 Sudeste 19 Sur 0 -- -- 59
2019-04-15 15:00:00 15.6 13 Sudeste 21 Sur 0 -- -- 57
2019-04-15 14:00:00 16.7 11 Sudeste 20 Sur 0 -- -- 55
2019-04-15 13:00:00 16 12 Sudeste 21 Sudeste 0 -- -- 61
2019-04-15 12:00:00 15.2 7 Sur 17 Sur 0 -- -- 55
2019-04-15 11:00:00 14.4 6 Sudeste 12 Sudeste 0 -- -- 56
2019-04-15 10:00:00 12.9 4 Sudeste 8 Sur 0 -- -- 63
2019-04-15 09:00:00 10.5 3 Norte 11 Noroeste 0 -- -- 72
2019-04-15 08:00:00 6.6 9 Noroeste 10 Noroeste 0 -- -- 89
2019-04-15 07:00:00 5.6 6 Noroeste 8 Noroeste 0 -- -- 89
2019-04-15 06:00:00 5.9 6 Oeste 12 Sudoeste 0 -- -- 89
2019-04-15 05:00:00 7.3 0 Calma 18 Noroeste 0 -- -- 83
2019-04-15 04:00:00 7.4 10 Noroeste 14 Noroeste 0 -- -- 86
2019-04-15 03:00:00 7.6 5 Oeste 17 Noroeste 0 -- -- 86
2019-04-15 02:00:00 8.7 12 Noroeste 16 Noroeste 0 -- -- 87
2019-04-15 01:00:00 8.8 10 Noroeste 13 Noroeste 0 -- -- 90
2019-04-15 00:00:00 9.2 9 Noroeste 14 Noroeste 0 -- -- 90
2019-04-14 23:00:00 10 9 Noroeste 12 Noroeste 0 -- -- 88
2019-04-14 22:00:00 10.7 5 Sudoeste 7 Sudoeste 0 -- -- 92
2019-04-14 21:00:00 12.1 3 Sur 10 Sudeste 0 -- -- 85
2019-04-14 20:00:00 14.2 7 Sudeste 13 Sur 0 -- -- 74
2019-04-14 19:00:00 15.9 10 Sudeste 19 Sudeste 0 -- -- 66
2019-04-14 18:00:00 17.3 13 Sudeste 22 Sudeste 0 -- -- 60
2019-04-14 17:00:00 18.1 15 Sudeste 23 Sur 0 -- -- 55
2019-04-14 16:00:00 18.5 13 Sudeste 26 Sudeste 0 -- -- 44
2019-04-14 15:00:00 18.2 13 Sudeste 26 Sudeste 0 -- -- 52
2019-04-14 14:00:00 18.1 15 Sudeste 25 Sudeste 0 -- -- 55
2019-04-14 13:00:00 17.6 9 Sudeste 19 Sudeste 0 -- -- 56
2019-04-14 12:00:00 16.7 8 Sur 17 Sudeste 0 -- -- 52
2019-04-14 11:00:00 15.2 4 Sur 8 Sur 0 -- -- 59
2019-04-14 10:00:00 11.7 3 Noroeste 6 Sudeste 0 -- -- 81
2019-04-14 09:00:00 8.7 3 Noroeste 8 Noroeste 0 -- -- 85
2019-04-14 08:00:00 7.1 6 Noroeste 10 Noroeste 0 -- -- 86
2019-04-14 07:00:00 6.2 5 Noroeste 14 Noroeste 0 -- -- 86
2019-04-14 06:00:00 5.8 4 Noroeste 10 Noroeste 0 -- -- 86
2019-04-14 05:00:00 6.7 8 Noroeste 15 Noroeste 0 -- -- 83
2019-04-14 04:00:00 6.8 10 Noroeste 16 Noroeste 0 -- -- 83
2019-04-14 03:00:00 7.1 10 Noroeste 15 Noroeste 0 -- -- 84
2019-04-14 02:00:00 7.8 8 Noroeste 15 Noroeste 0 -- -- 82
2019-04-14 01:00:00 8.7 10 Noroeste 15 Noroeste 0 -- -- 82
2019-04-14 00:00:00 9.5 9 Noroeste 14 Noroeste 0 -- -- 82
2019-04-13 23:00:00 10.2 10 Noroeste 15 Noroeste 0 -- -- 80
2019-04-13 22:00:00 9.8 8 Noroeste 11 Noroeste 0 -- -- 84
2019-04-13 21:00:00 11.1 2 Noroeste 6 Sudeste 0 -- -- 81
2019-04-13 20:00:00 15.2 5 Sudeste 17 Sudeste 0 -- -- 59
2019-04-13 19:00:00 16.8 10 Sudeste 17 Sudeste 0 -- -- 52
2019-04-13 18:00:00 17.5 11 Sudeste 24 Sudeste 0 -- -- 57
2019-04-13 17:00:00 18 15 Sudeste 27 Sudeste 0 -- -- 57
2019-04-13 16:00:00 18.7 19 Sudeste 28 Sudeste 0 -- -- 57
2019-04-13 15:00:00 20 18 Sudeste 28 Sudeste 0 -- -- 50
2019-04-13 14:00:00 20 10 Sudeste 24 Sur 0 -- -- 40
2019-04-13 13:00:00 18.6 9 Este 17 Este 0 -- -- 46
2019-04-13 12:00:00 17 9 Sudeste 15 Sudeste 0 -- -- 56
2019-04-13 11:00:00 14.4 5 Este 11 Sudeste 0 -- -- 68
2019-04-13 10:00:00 11.5 6 Sudeste 9 Sudeste 0 -- -- 85
2019-04-13 09:00:00 9.3 4 Sudeste 9 Noroeste 0 -- -- 91
2019-04-13 08:00:00 6 6 Noroeste 9 Noroeste 0 -- -- 95
2019-04-13 07:00:00 5.5 5 Noroeste 10 Noroeste 0 -- -- 95
2019-04-13 06:00:00 6.4 8 Noroeste 11 Noroeste 0 -- -- 94
2019-04-13 05:00:00 7 5 Noroeste 12 Noroeste 0 -- -- 93
2019-04-13 04:00:00 7.8 10 Noroeste 15 Noroeste 0 -- -- 94
2019-04-13 03:00:00 7.8 8 Noroeste 13 Noroeste 0 -- -- 94
2019-04-13 02:00:00 8.1 8 Noroeste 12 Noroeste 0 -- -- 94
2019-04-13 01:00:00 8.4 8 Noroeste 10 Noroeste 0 -- -- 95
2019-04-13 00:00:00 8.9 6 Noroeste 7 Noroeste 0 -- -- 94
2019-04-12 23:00:00 9.9 3 Noroeste 6 Noroeste 0 -- -- 92
2019-04-12 22:00:00 11.4 0 Calma 10 Sudeste 0 -- -- 87
2019-04-12 21:00:00 12.5 8 Sudeste 16 Sudeste 0 -- -- 81
2019-04-12 20:00:00 13.6 12 Sudeste 21 Sudeste 0 -- -- 76
2019-04-12 19:00:00 15.7 13 Sudeste 21 Sur 0 -- -- 67
2019-04-12 18:00:00 16 11 Este 26 Sudeste 0 -- -- 63
2019-04-12 17:00:00 16.8 14 Sudeste 22 Sudeste 0 -- -- 60
2019-04-12 16:00:00 17.3 12 Sudeste 24 Este 0 -- -- 54
2019-04-12 15:00:00 17.7 13 Este 25 Este 0 -- -- 57
2019-04-12 14:00:00 18 17 Sudeste 35 Sudeste 0 -- -- 60
2019-04-12 13:00:00 18.5 19 Sudeste 30 Sudeste 0 -- -- 43
2019-04-12 12:00:00 18.2 10 Sur 17 Sur 0 -- -- 42
2019-04-12 11:00:00 16.8 4 Sudeste 9 Sudeste 0 -- -- 48
2019-04-12 10:00:00 13.7 5 Sudeste 8 Sudeste 0 -- -- 69
2019-04-12 09:00:00 11.2 3 Este 6 Sur 0 -- -- 79
2019-04-12 08:00:00 7.3 4 Sudeste 9 Noroeste 0 -- -- 92
2019-04-12 07:00:00 7.3 6 Noroeste 8 Oeste 0 -- -- 93
2019-04-12 06:00:00 7.8 3 Noroeste 7 Sudoeste 0 -- -- 90
2019-04-12 05:00:00 8.4 3 Oeste 9 Sudoeste 0 -- -- 86
2019-04-12 04:00:00 9 2 Sudoeste 11 Oeste 0 -- -- 83
2019-04-12 03:00:00 9.6 9 Noroeste 14 Noroeste 0 -- -- 75
2019-04-12 02:00:00 9.2 6 Noroeste 11 Noroeste 0 -- -- 81
2019-04-12 01:00:00 9.6 6 Noroeste 10 Noroeste 0 -- -- 84
2019-04-12 00:00:00 10.3 6 Noroeste 13 Noroeste 0 -- -- 79
2019-04-11 23:00:00 11.1 7 Noroeste 14 Noroeste 0 -- -- 79
2019-04-11 22:00:00 11.9 8 Noroeste 12 Noroeste 0 -- -- 80
2019-04-11 21:00:00 13.1 3 Noroeste 4 Noroeste 0 -- -- 78
2019-04-11 20:00:00 14.7 3 Este 12 Este 0 -- -- 55
2019-04-11 19:00:00 15.3 3 Norte 11 Noroeste 0 -- -- 63
2019-04-11 18:00:00 15.4 2 Sudeste 11 Este 0.2 -- -- 66
2019-04-11 17:00:00 15.5 5 Nordeste 25 Sudeste 0.2 -- -- 63
2019-04-11 16:00:00 18 18 Sudeste 25 Sudeste 0 -- -- 49
2019-04-11 15:00:00 19.6 4 Oeste 13 Noroeste 0 -- -- 41
2019-04-11 14:00:00 18.8 6 Sur 17 Este 0 -- -- 42
2019-04-11 13:00:00 19 11 Sudeste 22 Este 0 -- -- 38
2019-04-11 12:00:00 18.9 6 Este 17 Este 0 -- -- 38
2019-04-11 11:00:00 16.9 7 Noroeste 15 Noroeste 0 -- -- 42
2019-04-11 10:00:00 15.1 4 Sudoeste 9 Sudeste 0 -- -- 48
2019-04-11 09:00:00 10.6 3 Noroeste 7 Noroeste 0 -- -- 77
2019-04-11 08:00:00 5.3 4 Noroeste 12 Oeste 0 -- -- 97
2019-04-11 07:00:00 5.3 4 Oeste 8 Sudeste 0 -- -- 96
2019-04-11 06:00:00 6 6 Sudeste 12 Noroeste 0 -- -- 93
2019-04-11 05:00:00 6.5 4 Noroeste 8 Oeste 0 -- -- 95
2019-04-11 04:00:00 7.7 2 Sudoeste 7 Oeste 0 -- -- 93
2019-04-11 03:00:00 8 3 Sudoeste 9 Este 0 -- -- 91
2019-04-11 02:00:00 8.3 3 Noroeste 12 Noroeste 0 -- -- 87
2019-04-11 01:00:00 7.6 7 Noroeste 12 Oeste 0 -- -- 88
2019-04-11 00:00:00 7.9 5 Noroeste 13 Oeste 0 -- -- 88
2019-04-10 23:00:00 8.6 4 Norte 12 Noroeste 0 -- -- 87
2019-04-10 22:00:00 9.2 9 Noroeste 12 Noroeste 0 -- -- 88
2019-04-10 21:00:00 9.8 8 Oeste 12 Oeste 0 -- -- 88
2019-04-10 20:00:00 12.2 6 Oeste 10 Oeste 0 -- -- 79
2019-04-10 19:00:00 13.9 7 Sudeste 19 Sur 0 -- -- 63
2019-04-10 18:00:00 15.6 11 Sudeste 24 Sudeste 0 -- -- 62
2019-04-10 17:00:00 15.4 9 Nordeste 22 Este 0.2 -- -- 57
2019-04-10 16:00:00 14.4 12 Norte 30 Norte 0 -- -- 65
2019-04-10 15:00:00 18.4 6 Sudeste 22 Sur 0 -- -- 43
2019-04-10 14:00:00 19.1 13 Sur 24 Sur 0 -- -- 43
2019-04-10 13:00:00 19.1 9 Sur 23 Sudoeste 0 -- -- 46
2019-04-10 12:00:00 17.1 8 Sudeste 13 Sudeste 0 -- -- 64
2019-04-10 11:00:00 14.4 5 Sudeste 10 Sudeste 0 -- -- 73
2019-04-10 10:00:00 11 6 Este 9 Este 0 -- -- 85
2019-04-10 09:00:00 7.7 0 Calma 4 Noroeste 0 -- -- 100
2019-04-10 08:00:00 5.1 0 Calma 4 Oeste 0 -- -- 100
2019-04-10 07:00:00 4 4 Sudoeste 6 Sudoeste 0 -- -- 100
2019-04-10 06:00:00 4.8 4 Noroeste 8 Noroeste 0 -- -- 99
2019-04-10 05:00:00 5.9 3 Oeste 6 Sudeste 0 -- -- 97
2019-04-10 04:00:00 5.5 2 Sur 10 Sudoeste 0 -- -- 95
2019-04-10 03:00:00 8.6 8 Norte 16 Noroeste 0 -- -- 87
2019-04-10 02:00:00 6.8 4 Oeste 8 Oeste 0 -- -- 96
2019-04-10 01:00:00 6.2 5 Noroeste 8 Oeste 0 -- -- 97
2019-04-10 00:00:00 7 0 Calma 15 Noroeste 0 -- -- 93
2019-04-09 23:00:00 8.2 13 Oeste 17 Oeste 0 -- -- 92
2019-04-09 22:00:00 7.8 4 Noroeste 16 Noroeste 0 -- -- 96
2019-04-09 21:00:00 8 8 Oeste 10 Oeste 0 -- -- 97
2019-04-09 20:00:00 8.3 4 Noroeste 6 Sur 0 -- -- 98
2019-04-09 19:00:00 8.6 4 Noroeste 13 Oeste 0.6 -- -- 98
2019-04-09 18:00:00 7.5 6 Noroeste 27 Noroeste 8.4 -- -- 98
2019-04-09 17:00:00 13.1 5 Nordeste 13 Este 0 -- -- 81
2019-04-09 16:00:00 12.7 3 Nordeste 14 Este 0 -- -- 88
2019-04-09 15:00:00 12.9 5 Este 14 Nordeste 2.2 -- -- 84
2019-04-09 14:00:00 12.6 6 Norte 21 Norte 0 -- -- 78
2019-04-09 13:00:00 15.5 13 Sudeste 24 Sudeste 0 -- -- 69
2019-04-09 12:00:00 15.3 9 Sudeste 17 Este 0 -- -- 64
2019-04-09 11:00:00 15.3 4 Oeste 9 Sudeste 0 -- -- 63
2019-04-09 10:00:00 14.1 4 Sudeste 7 Este 0 -- -- 73
2019-04-09 09:00:00 11.5 3 Sudeste 8 Este 0 -- -- 87
2019-04-09 08:00:00 8.2 2 Noroeste 6 Este 0 -- -- 95
2019-04-09 07:00:00 9 2 Sudoeste 10 Noroeste 0 -- -- 93
2019-04-09 06:00:00 8.7 7 Noroeste 11 Noroeste 0 -- -- 94
2019-04-09 05:00:00 8.3 6 Noroeste 13 Noroeste 0 -- -- 95
2019-04-09 04:00:00 8 2 Noroeste 10 Noroeste 0 -- -- 94
2019-04-09 03:00:00 9.3 9 Noroeste 15 Noroeste 0 -- -- 92
2019-04-09 02:00:00 9.5 2 Noroeste 10 Oeste 0 -- -- 92
2019-04-09 01:00:00 10.8 6 Noroeste 11 Noroeste 0 -- -- 91
2019-04-09 00:00:00 10.5 5 Noroeste 8 Oeste 0 -- -- 91
2019-04-08 23:00:00 12.4 6 Noroeste 10 Noroeste 0 -- -- 85
2019-04-08 22:00:00 12.4 5 Noroeste 9 Noroeste 0 -- -- 85
2019-04-08 21:00:00 13.5 4 Norte 14 Noroeste 0 -- -- 80
2019-04-08 20:00:00 15.8 6 Norte 25 Norte 0 -- -- 71
2019-04-08 19:00:00 19.3 11 Norte 26 Norte 0 -- -- 58
2019-04-08 18:00:00 21.7 6 Oeste 17 Oeste 0 -- -- 41
2019-04-08 17:00:00 21.2 6 Sudoeste 20 Sudoeste 0 -- -- 40
2019-04-08 16:00:00 19.8 9 Oeste 20 Noroeste 0 -- -- 41
2019-04-08 15:00:00 19.1 14 Noroeste 25 Oeste 0 -- -- 46
2019-04-08 14:00:00 17.9 13 Noroeste 24 Noroeste 0 -- -- 47
2019-04-08 13:00:00 18.6 6 Sur 15 Sudeste 0 -- -- 47
2019-04-08 12:00:00 16.4 10 Sudeste 16 Sudeste 0 -- -- 58
2019-04-08 11:00:00 13.3 4 Este 8 Sudeste 0 -- -- 72
2019-04-08 10:00:00 10.4 2 Sur 5 Este 0 -- -- 81
2019-04-08 09:00:00 7.8 0 Calma 6 Noroeste 0 -- -- 92
2019-04-08 08:00:00 4.2 0 Calma 5 Noroeste 0 -- -- 98
2019-04-08 07:00:00 4.3 0 Calma 8 Noroeste 0 -- -- 95
2019-04-08 06:00:00 4.9 0 Calma 10 Noroeste 0 -- -- 93
2019-04-08 05:00:00 4.6 6 Noroeste 9 Noroeste 0 -- -- 95
2019-04-08 04:00:00 5.1 6 Noroeste 10 Oeste 0 -- -- 93
2019-04-08 03:00:00 4.6 6 Noroeste 10 Noroeste 0 -- -- 97
2019-04-08 02:00:00 6 5 Noroeste 10 Noroeste 0 -- -- 89
2019-04-08 01:00:00 6 8 Noroeste 13 Noroeste 0 -- -- 92
2019-04-08 00:00:00 6.1 8 Noroeste 13 Noroeste 0 -- -- 92
2019-04-07 23:00:00 6.6 9 Noroeste 12 Oeste 0 -- -- 93
2019-04-07 22:00:00 6.7 3 Noroeste 17 Sudoeste 0 -- -- 91
2019-04-07 21:00:00 7.4 4 Noroeste 6 Noroeste 0 -- -- 93
2019-04-07 20:00:00 9.8 5 Sudoeste 12 Sur 0 -- -- 85
2019-04-07 19:00:00 14.6 8 Sur 12 Sudoeste 0 -- -- 62
2019-04-07 18:00:00 11.8 5 Norte 10 Norte 0 -- -- 74
2019-04-07 17:00:00 10.9 4 Noroeste 22 Norte 0.2 -- -- 79
2019-04-07 16:00:00 11.8 7 Norte 21 Norte 0 -- -- 65
2019-04-07 15:00:00 16 6 Nordeste 23 Este 0 -- -- 48
2019-04-07 14:00:00 17.7 10 Este 21 Este 0 -- -- 48
2019-04-07 13:00:00 17.8 9 Este 16 Este 0 -- -- 46
2019-04-07 12:00:00 15.4 6 Sudoeste 13 Sur 0 -- -- 50
2019-04-07 11:00:00 14.7 4 Sur 10 Noroeste 0 -- -- 52
2019-04-07 10:00:00 12.3 6 Sudoeste 12 Este 0 -- -- 61
2019-04-07 09:00:00 8.8 7 Sudeste 10 Este 0 -- -- 81
2019-04-07 08:00:00 4.4 4 Sur 9 Noroeste 0 -- -- 95
2019-04-07 07:00:00 4.2 4 Este 10 Sudeste 0 -- -- 92
2019-04-07 06:00:00 5.3 4 Sudeste 18 Sudeste 0 -- -- 91
2019-04-07 05:00:00 4.8 5 Este 9 Este 0 -- -- 90
2019-04-07 04:00:00 5 4 Noroeste 10 Oeste 0 -- -- 92
2019-04-07 03:00:00 5.5 2 Sur 9 Sudoeste 0 -- -- 89
2019-04-07 02:00:00 6.8 0 Calma 18 Oeste 0 -- -- 85
2019-04-07 01:00:00 6.9 13 Noroeste 20 Noroeste 0 -- -- 82
2019-04-07 00:00:00 6.5 12 Noroeste 15 Noroeste 0 -- -- 85
2019-04-06 23:00:00 6.4 10 Noroeste 13 Noroeste 0 -- -- 88
2019-04-06 22:00:00 7.3 6 Noroeste 9 Noroeste 0 -- -- 86
2019-04-06 21:00:00 9.8 2 Norte 16 Sur 0 -- -- 76
2019-04-06 20:00:00 13.1 12 Sur 30 Sudoeste 0 -- -- 55
2019-04-06 19:00:00 13.5 20 Sudoeste 33 Sudoeste 0 -- -- 49
2019-04-06 18:00:00 15.4 11 Sudoeste 29 Oeste 0 -- -- 43
2019-04-06 17:00:00 15.4 13 Sudoeste 35 Sudoeste 0 -- -- 44
2019-04-06 16:00:00 15.9 14 Sudoeste 40 Sudoeste 0 -- -- 45
2019-04-06 15:00:00 15.7 21 Sudoeste 42 Oeste 0 -- -- 43
2019-04-06 14:00:00 15.1 17 Oeste 33 Sudoeste 0 -- -- 52
2019-04-06 13:00:00 14.2 17 Oeste 36 Sudoeste 0 -- -- 59
2019-04-06 12:00:00 13.1 24 Sudoeste 41 Oeste 0 -- -- 60
2019-04-06 11:00:00 11.2 26 Sudoeste 41 Oeste 0 -- -- 67
2019-04-06 10:00:00 10.3 11 Sudoeste 24 Sudoeste 0 -- -- 75
2019-04-06 09:00:00 9 12 Sudoeste 30 Oeste 0 -- -- 76
2019-04-06 08:00:00 7.7 17 Oeste 37 Oeste 0 -- -- 79
2019-04-06 07:00:00 7.3 10 Sudoeste 18 Sur 0 -- -- 88
2019-04-06 06:00:00 8.4 6 Noroeste 19 Oeste 1.2 -- -- 86
2019-04-06 05:00:00 9 2 Sudeste 11 Sudeste 1 -- -- 98
2019-04-06 04:00:00 9.1 8 Sudeste 12 Sur 0 -- -- 98
2019-04-06 03:00:00 9.3 2 Sur 7 Sudoeste 0 -- -- 98
2019-04-06 02:00:00 9.5 2 Sudeste 14 Sudeste 1 -- -- 98
2019-04-06 01:00:00 9.6 2 Nordeste 6 Noroeste 0.2 -- -- 97
2019-04-06 00:00:00 9.8 7 Sudoeste 21 Sudoeste 3.8 -- -- 96
2019-04-05 23:00:00 10.2 3 Noroeste 14 Este 1.8 -- -- 96
2019-04-05 22:00:00 10.3 9 Este 23 Este 1 -- -- 95
2019-04-05 21:00:00 9.9 8 Norte 17 Oeste 2.4 -- -- 95
2019-04-05 20:00:00 10.9 6 Norte 25 Sudeste 4.2 -- -- 90
2019-04-05 19:00:00 14.2 8 Sudeste 23 Sudeste 0 -- -- 78
2019-04-05 18:00:00 14.1 13 Sudeste 36 Este 0 -- -- 70
2019-04-05 17:00:00 16.4 17 Sudeste 33 Sudeste 0 -- -- 64
2019-04-05 16:00:00 17.1 18 Sudeste 30 Sudeste 0 -- -- 66
2019-04-05 15:00:00 16.7 19 Sudeste 30 Sudeste 0 -- -- 60
2019-04-05 14:00:00 16.1 10 Sudeste 18 Este 0 -- -- 69
2019-04-05 13:00:00 14.6 8 Sudeste 18 Sur 0 -- -- 71
2019-04-05 12:00:00 12.2 5 Sur 8 Sudeste 0 -- -- 74
2019-04-05 11:00:00 11.7 4 Sudeste 7 Sur 0 -- -- 70
2019-04-05 10:00:00 8.6 0 Calma 6 Sudeste 0 -- -- 81
2019-04-05 09:00:00 6.3 4 Sudeste 10 Noroeste 0 -- -- 86
2019-04-05 08:00:00 3.6 5 Noroeste 14 Noroeste 0 -- -- 93
2019-04-05 07:00:00 1.7 5 Noroeste 8 Noroeste 0 -- -- 95
2019-04-05 06:00:00 2.2 8 Noroeste 12 Noroeste 0 -- -- 93
2019-04-05 05:00:00 2.3 7 Noroeste 11 Noroeste 0 -- -- 94
2019-04-05 04:00:00 2.6 4 Noroeste 9 Noroeste 0 -- -- 97
2019-04-05 03:00:00 3 9 Noroeste 12 Noroeste 0 -- -- 96
2019-04-05 02:00:00 3.6 6 Noroeste 13 Noroeste 0 -- -- 94
2019-04-05 01:00:00 4.4 10 Noroeste 14 Noroeste 0 -- -- 87
2019-04-05 00:00:00 4.7 7 Noroeste 19 Noroeste 0 -- -- 86
2019-04-04 23:00:00 5.5 13 Noroeste 17 Noroeste 0 -- -- 82
2019-04-04 22:00:00 6 4 Oeste 15 Noroeste 0 -- -- 82
2019-04-04 21:00:00 7.6 4 Noroeste 12 Este 0 -- -- 77
2019-04-04 20:00:00 11.8 4 Nordeste 13 Nordeste 0 -- -- 55
2019-04-04 19:00:00 14.9 6 Sudeste 24 Este 0 -- -- 44
2019-04-04 18:00:00 14.8 13 Sudeste 27 Sudeste 0 -- -- 44
2019-04-04 17:00:00 14.5 15 Este 30 Este 0 -- -- 47
2019-04-04 16:00:00 13.7 19 Sudeste 27 Sudeste 0 -- -- 53
2019-04-04 15:00:00 15 12 Sudeste 21 Sudeste 0 -- -- 39
2019-04-04 14:00:00 15.2 8 Sur 28 Sudoeste 0 -- -- 36
2019-04-04 13:00:00 13.1 12 Oeste 29 Noroeste 0 -- -- 44
2019-04-04 12:00:00 11.5 17 Noroeste 24 Noroeste 0 -- -- 54
2019-04-04 11:00:00 10.5 5 Sur 13 Sudoeste 0 -- -- 51
2019-04-04 10:00:00 7.1 6 Oeste 18 Noroeste 0 -- -- 65
2019-04-04 09:00:00 5.3 8 Oeste 20 Noroeste 0 -- -- 72
2019-04-04 08:00:00 2.2 11 Noroeste 20 Noroeste 0 -- -- 88
2019-04-04 07:00:00 1.9 10 Oeste 18 Sudoeste 0 -- -- 90
2019-04-04 06:00:00 4 5 Sur 27 Noroeste 0 -- -- 76
2019-04-04 05:00:00 3 2 Noroeste 11 Oeste 0 -- -- 96
2019-04-04 04:00:00 4.4 2 Sudoeste 8 Sudoeste 0 -- -- 94
2019-04-04 03:00:00 6.1 3 Noroeste 6 Noroeste 0 -- -- 93
2019-04-04 02:00:00 6.3 3 Norte 10 Noroeste 0 -- -- 93
2019-04-04 01:00:00 6.7 2 Nordeste 10 Noroeste 0 -- -- 94
2019-04-04 00:00:00 7 5 Noroeste 12 Norte 0 -- -- 95
2019-04-03 23:00:00 7.9 6 Norte 15 Norte 0 -- -- 94
2019-04-03 22:00:00 8.8 2 Este 7 Sudeste 0.6 -- -- 94
2019-04-03 21:00:00 9.4 6 Sudeste 14 Sur 1.4 -- -- 90
2019-04-03 20:00:00 10.8 9 Sudoeste 16 Sudoeste 0 -- -- 70
2019-04-03 19:00:00 11.1 4 Oeste 33 Oeste 0.2 -- -- 77
2019-04-03 18:00:00 11.9 20 Oeste 36 Oeste 0.2 -- -- 81
2019-04-03 17:00:00 14.6 10 Oeste 22 Oeste 0 -- -- 56
2019-04-03 16:00:00 15.9 13 Noroeste 22 Noroeste 0 -- -- 55
2019-04-03 15:00:00 15.9 3 Este 9 Este 0.2 -- -- 78
2019-04-03 14:00:00 14.4 7 Sudeste 26 Sudoeste 1.6 -- -- 79
2019-04-03 13:00:00 17.9 14 Sudeste 21 Sur 0 -- -- 65
2019-04-03 12:00:00 16.3 6 Sur 15 Sudoeste 0 -- -- 74
2019-04-03 11:00:00 15.2 10 Sur 16 Sudeste 0 -- -- 78
2019-04-03 10:00:00 13.6 2 Nordeste 7 Sudeste 0 -- -- 87
2019-04-03 09:00:00 12.1 2 Este 4 Este 0 -- -- 93
2019-04-03 08:00:00 11.6 0 Calma 4 Norte 0.2 -- -- 95
2019-04-03 07:00:00 11.6 0 Calma 5 Este 0 -- -- 95
2019-04-03 06:00:00 11.7 3 Sudoeste 5 Sudoeste 0 -- -- 93
2019-04-03 05:00:00 11.7 0 Calma 5 Noroeste 0 -- -- 93
2019-04-03 04:00:00 11.6 3 Noroeste 5 Noroeste 0 -- -- 92
2019-04-03 03:00:00 11.5 2 Norte 6 Oeste 0 -- -- 92
2019-04-03 02:00:00 11.6 3 Nordeste 8 Noroeste 0 -- -- 90
2019-04-03 01:00:00 11.3 3 Norte 8 Noroeste 0 -- -- 91
2019-04-03 00:00:00 11.7 3 Este 10 Noroeste 3.2 -- -- 92
2019-04-02 23:00:00 12.3 10 Noroeste 17 Norte 0 -- -- 81
2019-04-02 22:00:00 12.9 6 Nordeste 18 Este 0 -- -- 76
2019-04-02 21:00:00 13.4 6 Nordeste 18 Norte 0 -- -- 77
2019-04-02 20:00:00 14 7 Norte 19 Norte 0 -- -- 81
2019-04-02 19:00:00 16.5 5 Nordeste 20 Este 0 -- -- 70
2019-04-02 18:00:00 18.3 13 Sudeste 29 Sudeste 0 -- -- 57
2019-04-02 17:00:00 19.7 15 Sudeste 29 Sudeste 0 -- -- 57
2019-04-02 16:00:00 21 18 Este 27 Este 0 -- -- 52
2019-04-02 15:00:00 20.5 13 Sudeste 24 Sudeste 0 -- -- 52
2019-04-02 14:00:00 20.4 6 Este 17 Este 0 -- -- 40
2019-04-02 13:00:00 20.2 8 Sudeste 13 Sur 0 -- -- 41
2019-04-02 12:00:00 18.1 6 Este 13 Este 0 -- -- 47
2019-04-02 11:00:00 16.9 3 Este 12 Sudeste 0 -- -- 52
2019-04-02 10:00:00 13.7 3 Sudeste 8 Sudeste 0 -- -- 66
2019-04-02 09:00:00 9.3 3 Noroeste 5 Noroeste 0 -- -- 80
2019-04-02 08:00:00 7.1 0 Calma 6 Noroeste 0 -- -- 86
2019-04-02 07:00:00 6.6 3 Norte 5 Oeste 0 -- -- 86
2019-04-02 06:00:00 5.9 4 Oeste 8 Noroeste 0 -- -- 87
2019-04-02 05:00:00 6.1 0 Calma 8 Noroeste 0 -- -- 83
2019-04-02 04:00:00 7.3 5 Noroeste 7 Noroeste 0 -- -- 79
2019-04-02 03:00:00 7 5 Noroeste 8 Oeste 0 -- -- 79
2019-04-02 02:00:00 7.8 4 Noroeste 11 Noroeste 0 -- -- 73
2019-04-02 01:00:00 8.5 10 Noroeste 13 Noroeste 0 -- -- 72
2019-04-02 00:00:00 8.1 9 Noroeste 15 Noroeste 0 -- -- 74
2019-04-01 23:00:00 8.9 10 Noroeste 16 Noroeste 0 -- -- 72
2019-04-01 22:00:00 9.3 9 Noroeste 10 Noroeste 0 -- -- 71
2019-04-01 21:00:00 10.1 3 Noroeste 10 Sudeste 0 -- -- 70
2019-04-01 20:00:00 14.2 6 Sudeste 18 Sudeste 0 -- -- 56
2019-04-01 19:00:00 17.2 13 Sudeste 22 Sudeste 0 -- -- 39
2019-04-01 18:00:00 18.4 15 Sudeste 25 Sudeste 0 -- -- 40
2019-04-01 17:00:00 19.5 12 Sudeste 29 Sudeste 0 -- -- 35
2019-04-01 16:00:00 19.5 18 Sudeste 29 Sudeste 0 -- -- 34
2019-04-01 15:00:00 20.9 15 Sudeste 24 Este 0 -- -- 34
2019-04-01 14:00:00 20.5 8 Sudeste 19 Sudeste 0 -- -- 34
2019-04-01 13:00:00 19.1 6 Sur 18 Sudeste 0 -- -- 34
2019-04-01 12:00:00 18 9 Sudeste 16 Sur 0 -- -- 39
2019-04-01 11:00:00 16.2 7 Este 12 Este -- -- -- 45
2019-04-01 10:00:00 13.3 4 Sudeste 7 Este 0 -- -- 54
2019-04-01 09:00:00 9.3 0 Calma 5 Sur 0 -- -- 67
2019-04-01 08:00:00 7.8 4 Sudeste 13 Noroeste 0 -- -- 72
2019-04-01 07:00:00 7.9 9 Noroeste 12 Noroeste 0 -- -- 70
2019-04-01 06:00:00 7.3 0 Calma 4 Norte 0 -- -- 72
2019-04-01 05:00:00 7.5 4 Noroeste 12 Noroeste 0 -- -- 71
2019-04-01 04:00:00 9.1 9 Noroeste 14 Noroeste 0 -- -- 63
2019-04-01 03:00:00 9.6 6 Noroeste 11 Noroeste 0 -- -- 63
2019-04-01 02:00:00 10.2 7 Noroeste 9 Noroeste 0 -- -- 61
2019-04-01 01:00:00 10.6 6 Noroeste 10 Oeste 0 -- -- 60
2019-04-01 00:00:00 11 5 Noroeste 9 Noroeste 0 -- -- 60
2019-03-31 23:00:00 11.3 6 Noroeste 8 Noroeste 0 -- -- 59
2019-03-31 22:00:00 11.6 7 Noroeste 8 Noroeste 0 -- -- 60
2019-03-31 21:00:00 12.1 3 Noroeste 9 Este 0 -- -- 59
2019-03-31 20:00:00 13.7 4 Este 20 Este 0 -- -- 48
2019-03-31 19:00:00 15.2 8 Este 21 Este 0 -- -- 51
2019-03-31 18:00:00 16.4 12 Este 28 Este 0 -- -- 54
2019-03-31 17:00:00 19.5 14 Este 27 Sudeste 0 -- -- 50
2019-03-31 16:00:00 19.1 9 Norte 18 Norte 0 -- -- 50
2019-03-31 15:00:00 18.7 7 Nordeste 18 Nordeste 0 -- -- 52
2019-03-31 14:00:00 17.7 7 Nordeste 21 Este 0 -- -- 55
2019-03-31 13:00:00 16.5 8 Este 21 Este 0 -- -- 58
2019-03-31 12:00:00 14.3 12 Norte 19 Norte 0 -- -- 68
2019-03-31 11:00:00 13.2 8 Norte 19 Norte 0 -- -- 71
2019-03-31 10:00:00 10.7 6 Norte 10 Norte 0 -- -- 79
2019-03-31 09:00:00 8.8 0 Calma 12 Sudeste 0 -- -- 82
2019-03-31 08:00:00 8.7 6 Noroeste 18 Noroeste 0 -- -- 81
2019-03-31 07:00:00 7.7 14 Noroeste 17 Noroeste 0 -- -- 82
2019-03-31 06:00:00 6.3 10 Noroeste 14 Noroeste 0 -- -- 88
2019-03-31 05:00:00 4.3 0 Calma 6 Norte 0 -- -- 92
2019-03-31 03:00:00 6.9 11 Noroeste 13 Noroeste 0 -- -- 86
2019-03-31 01:00:00 7.5 9 Noroeste 14 Noroeste 0 -- -- 87
2019-03-31 00:00:00 7.9 8 Noroeste 11 Noroeste 0 -- -- 88
2019-03-30 23:00:00 8.2 2 Noroeste 4 Norte 0 -- -- 84
2019-03-30 22:00:00 11.4 0 Calma 4 Nordeste 0 -- -- 78
2019-03-30 21:00:00 11.5 2 Este 10 Este 0 -- -- 77
2019-03-30 20:00:00 11.5 4 Este 12 Este 0 -- -- 74
2019-03-30 19:00:00 12.3 5 Este 17 Sudeste 0 -- -- 68
2019-03-30 18:00:00 14.6 12 Sudeste 22 Este 0 -- -- 61
2019-03-30 17:00:00 16.4 14 Este 23 Sudeste 0 -- -- 53
2019-03-30 16:00:00 17.3 10 Este 22 Este 0 -- -- 49
2019-03-30 15:00:00 16.2 12 Sudeste 23 Sudeste 0 -- -- 55
2019-03-30 14:00:00 16.1 12 Sudeste 23 Este 0 -- -- 52
2019-03-30 13:00:00 18.1 14 Sudeste 22 Sudeste 0 -- -- 47
2019-03-30 12:00:00 17.1 7 Este 22 Sudeste 0 -- -- 47
2019-03-30 11:00:00 15.7 6 Este 18 Sudeste 0 -- -- 53
2019-03-30 10:00:00 14.7 6 Sudeste 10 Este 0 -- -- 54
2019-03-30 09:00:00 11 3 Este 8 Este 0 -- -- 67
2019-03-30 08:00:00 6 0 Calma 6 Este 0 -- -- 83
2019-03-30 07:00:00 3.1 6 Sudeste 17 Noroeste 0 -- -- 87
2019-03-30 06:00:00 3.2 3 Este 16 Noroeste 0 -- -- 87
2019-03-30 05:00:00 4.8 13 Noroeste 17 Noroeste 0 -- -- 83
2019-03-30 04:00:00 5.1 8 Noroeste 14 Noroeste 0 -- -- 79
2019-03-30 03:00:00 6.2 8 Noroeste 13 Noroeste 0 -- -- 70
2019-03-30 02:00:00 5.9 10 Noroeste 17 Noroeste 0 -- -- 68
2019-03-30 01:00:00 5.4 12 Noroeste 17 Noroeste 0 -- -- 67
2019-03-30 00:00:00 5.9 12 Noroeste 18 Noroeste 0 -- -- 65
2019-03-29 23:00:00 6.4 12 Noroeste 16 Noroeste 0 -- -- 64
2019-03-29 22:00:00 7 10 Noroeste 18 Noroeste 0 -- -- 64
2019-03-29 21:00:00 7.9 9 Noroeste 14 Noroeste 0 -- -- 62
2019-03-29 20:00:00 8.8 2 Noroeste 10 Este 0 -- -- 58
2019-03-29 19:00:00 13.2 6 Este 17 Este 0 -- -- 46
2019-03-29 18:00:00 16.7 8 Este 19 Este 0 -- -- 42
2019-03-29 17:00:00 17.4 12 Este 23 Este 0 -- -- 39
2019-03-29 16:00:00 17.6 11 Este 25 Este 0 -- -- 35
2019-03-29 15:00:00 17.9 14 Sudeste 27 Sudeste 0 -- -- 33
2019-03-29 14:00:00 18.2 13 Este 28 Este 0 -- -- 32
2019-03-29 13:00:00 18.4 11 Este 27 Este 0 -- -- 32
2019-03-29 12:00:00 18.3 15 Este 27 Este 0 -- -- 37
2019-03-29 11:00:00 17.7 12 Este 20 Sudeste 0 -- -- 44
2019-03-29 10:00:00 15.8 6 Nordeste 16 Este 0 -- -- 47
2019-03-29 09:00:00 12.4 2 Sur 4 Sudoeste 0 -- -- 57
2019-03-29 08:00:00 7.4 0 Calma 10 Noroeste 0 -- -- 69
2019-03-29 07:00:00 3.4 8 Noroeste 10 Noroeste 0 -- -- 81
2019-03-29 06:00:00 3.4 4 Norte 10 Noroeste 0 -- -- 78
2019-03-29 05:00:00 3.2 4 Noroeste 10 Noroeste 0 -- -- 79
2019-03-29 04:00:00 4.5 6 Noroeste 13 Norte 0 -- -- 73
2019-03-29 03:00:00 4.6 3 Oeste 8 Noroeste 0 -- -- 73
2019-03-29 02:00:00 6.4 5 Noroeste 12 Noroeste 0 -- -- 67
2019-03-29 01:00:00 6.4 11 Noroeste 17 Noroeste 0 -- -- 71
2019-03-29 00:00:00 6.7 10 Noroeste 18 Oeste 0 -- -- 75
2019-03-28 23:00:00 7.1 11 Noroeste 14 Noroeste 0 -- -- 76
2019-03-28 22:00:00 7.4 9 Noroeste 11 Oeste 0 -- -- 75
2019-03-28 21:00:00 8.4 9 Oeste 11 Noroeste 0 -- -- 71
2019-03-28 20:00:00 8.5 6 Oeste 8 Oeste 0 -- -- 71
2019-03-28 19:00:00 12.7 5 Sudeste 17 Sudeste 0 -- -- 55
2019-03-28 18:00:00 15.4 12 Sudeste 21 Sudeste 0 -- -- 48
2019-03-28 17:00:00 16.5 11 Sudeste 26 Sudeste 0 -- -- 47
2019-03-28 16:00:00 16.9 15 Sudeste 28 Sur 0 -- -- 45
2019-03-28 15:00:00 17.6 19 Sudeste 29 Sudeste 0 -- -- 41
2019-03-28 14:00:00 18.1 18 Sudeste 29 Sur 0 -- -- 34
2019-03-28 13:00:00 18.2 16 Sudeste 26 Sudeste 0 -- -- 33
2019-03-28 12:00:00 17 9 Sudeste 20 Sudeste 0 -- -- 34
2019-03-28 11:00:00 15.9 8 Sudeste 13 Sudeste 0 -- -- 39
2019-03-28 10:00:00 13.4 2 Este 6 Sudeste 0 -- -- 51
2019-03-28 09:00:00 9.6 5 Este 9 Sudeste 0 -- -- 63
2019-03-28 08:00:00 6 2 Noroeste 12 Noroeste 0 -- -- 77
2019-03-28 07:00:00 3.1 5 Noroeste 11 Noroeste 0 -- -- 79
2019-03-28 06:00:00 2.8 6 Noroeste 10 Oeste 0 -- -- 81
2019-03-28 05:00:00 3.5 4 Noroeste 13 Noroeste 0 -- -- 78
2019-03-28 04:00:00 4.4 5 Noroeste 17 Noroeste 0 -- -- 73
2019-03-28 03:00:00 5.3 10 Noroeste 17 Noroeste 0 -- -- 70
2019-03-28 02:00:00 5.3 10 Noroeste 14 Noroeste 0 -- -- 72
2019-03-28 01:00:00 5.2 7 Noroeste 14 Noroeste 0 -- -- 75
2019-03-28 00:00:00 6.1 7 Noroeste 12 Noroeste 0 -- -- 76
2019-03-27 23:00:00 7 10 Noroeste 15 Noroeste 0 -- -- 77
2019-03-27 22:00:00 7.5 9 Noroeste 14 Noroeste 0 -- -- 75
2019-03-27 21:00:00 7.6 6 Noroeste 10 Oeste 0 -- -- 76
2019-03-27 20:00:00 9.4 6 Sudoeste 10 Sudeste 0 -- -- 69
2019-03-27 19:00:00 11.9 7 Sudeste 15 Sudeste 0 -- -- 61
2019-03-27 18:00:00 14.1 12 Sudeste 20 Sudeste 0 -- -- 52
2019-03-27 17:00:00 15.4 13 Sudeste 26 Sudeste 0 -- -- 45
2019-03-27 16:00:00 16.1 15 Sudeste 27 Sudeste 0 -- -- 42
2019-03-27 15:00:00 16.8 18 Sudeste 31 Sudeste 0 -- -- 41
2019-03-27 14:00:00 18.8 19 Sudeste 32 Sudeste 0 -- -- 38
2019-03-27 13:00:00 19.1 11 Este 25 Sudeste 0 -- -- 26
2019-03-27 12:00:00 18 11 Sudeste 21 Sudeste 0 -- -- 30
2019-03-27 11:00:00 16.8 6 Sudeste 12 Sur 0 -- -- 33
2019-03-27 10:00:00 12.8 5 Sudeste 10 Este 0 -- -- 47
2019-03-27 09:00:00 9.2 6 Este 9 Este 0 -- -- 55
2019-03-27 08:00:00 4.8 3 Sudeste 11 Noroeste 0 -- -- 68
2019-03-27 07:00:00 2.9 10 Noroeste 14 Noroeste 0 -- -- 69
2019-03-27 06:00:00 2.1 6 Noroeste 12 Noroeste 0 -- -- 69
2019-03-27 05:00:00 3.4 7 Noroeste 14 Noroeste 0 -- -- 60
2019-03-27 04:00:00 3.8 9 Noroeste 16 Oeste 0 -- -- 57
2019-03-27 03:00:00 3.7 9 Noroeste 13 Noroeste 0 -- -- 58
2019-03-27 02:00:00 4.3 6 Noroeste 13 Noroeste 0 -- -- 60
2019-03-27 01:00:00 4.4 5 Norte 13 Noroeste 0 -- -- 62
2019-03-27 00:00:00 3.7 4 Oeste 11 Noroeste 0 -- -- 68